Time;durP1;ratioP1;P1;durP2;ratioP2;P2;SDS_P1;SDS_P2;PMS_P1;PMS_P2;Temp;Humidity;BMP_temperature;BMP_pressure;BME280_temperature;BME280_humidity;BME280_pressure;Samples;Min_cycle;Max_cycle;Signal;HPM_P1;HPM_P2
2022/03/20 00:00:55;;;;;;;;;5.00;5.00;;;;;11.48;30.56;101904.91;5076847;27;45384;-71
2022/03/20 00:03:23;;;;;;;;;4.00;4.00;;;;;11.45;29.91;101899.72;5076678;27;45655;-67
2022/03/20 00:05:50;;;;;;;;;3.33;3.33;;;;;11.40;29.60;101894.50;5075085;27;45488;-68
2022/03/20 00:08:15;;;;;;;;;2.33;2.33;;;;;11.38;30.01;101890.16;5076157;27;45390;-73
2022/03/20 00:10:46;;;;;;;;;3.00;3.00;;;;;11.39;30.23;101899.78;5076557;27;45451;-68
2022/03/20 00:13:18;;;;;;;;;3.33;3.00;;;;;11.37;30.31;101897.22;5076530;27;45509;-65
2022/03/20 00:15:45;;;;;;;;;3.00;3.00;;;;;11.32;30.05;101891.16;5076231;27;45485;-72
2022/03/20 00:18:12;;;;;;;;;5.67;4.33;;;;;11.30;30.17;101892.06;5076029;27;45467;-71
2022/03/20 00:20:39;;;;;;;;;4.33;4.33;;;;;11.25;30.06;101892.13;5076658;27;45410;-71
2022/03/20 00:23:07;;;;;;;;;5.00;3.00;;;;;11.22;30.11;101881.66;5076156;27;45598;-72
2022/03/20 00:25:37;;;;;;;;;3.00;3.00;;;;;11.21;30.37;101891.34;5075747;27;46165;-69
2022/03/20 00:28:04;;;;;;;;;3.67;2.67;;;;;11.20;30.12;101883.44;5075696;27;45468;-71
2022/03/20 00:30:30;;;;;;;;;3.67;3.67;;;;;11.20;30.63;101888.72;5076085;27;45536;-72
2022/03/20 00:32:55;;;;;;;;;4.00;3.33;;;;;11.17;30.21;101883.50;5076119;27;45450;-69
2022/03/20 00:35:21;;;;;;;;;6.67;4.00;;;;;11.16;31.05;101890.53;5076147;27;45491;-71
2022/03/20 00:37:46;;;;;;;;;3.00;2.67;;;;;11.18;30.04;101887.91;5075989;27;45374;-71
2022/03/20 00:40:12;;;;;;;;;4.33;4.00;;;;;11.19;30.53;101887.00;5076102;27;45512;-65
2022/03/20 00:42:37;;;;;;;;;3.00;3.00;;;;;11.20;30.82;101886.97;5075928;28;45473;-69
2022/03/20 00:45:04;;;;;;;;;3.00;3.00;;;;;11.16;30.40;101871.25;5075773;27;52852;-71
2022/03/20 00:47:30;;;;;;;;;3.00;2.00;;;;;11.17;30.89;101873.84;5075887;27;45375;-66
2022/03/20 00:49:55;;;;;;;;;2.00;2.00;;;;;11.15;30.63;101873.00;5075728;27;45477;-71
2022/03/20 00:52:21;;;;;;;;;3.00;2.00;;;;;11.15;30.42;101880.03;5075862;27;45562;-70
2022/03/20 00:54:46;;;;;;;;;5.67;3.00;;;;;11.13;30.56;101877.44;5075282;27;54981;-67
2022/03/20 00:57:12;;;;;;;;;3.67;3.00;;;;;11.13;30.62;101879.19;5075233;28;45599;-66
2022/03/20 00:59:37;;;;;;;;;3.00;3.00;;;;;11.15;30.34;101880.03;5075811;27;45410;-69
2022/03/20 01:02:04;;;;;;;;;4.00;4.00;;;;;11.14;31.04;101871.25;5075739;27;45478;-69
2022/03/20 01:04:30;;;;;;;;;3.00;3.00;;;;;11.13;30.34;101866.03;5075777;27;46222;-68
2022/03/20 01:07:00;;;;;;;;;1.67;1.67;;;;;11.09;30.01;101873.09;5075441;28;45639;-67
2022/03/20 01:09:25;;;;;;;;;3.33;3.00;;;;;11.06;31.08;101866.13;5074207;27;45464;-68
2022/03/20 01:11:51;;;;;;;;;3.67;2.00;;;;;11.07;31.17;101867.00;5075352;27;45670;-66
2022/03/20 01:14:16;;;;;;;;;4.00;2.67;;;;;11.08;30.66;101873.13;5075496;27;45411;-68
2022/03/20 01:16:42;;;;;;;;;2.00;2.00;;;;;11.08;31.17;101866.09;5074908;27;50829;-65
2022/03/20 01:19:07;;;;;;;;;3.67;3.67;;;;;11.03;30.81;101849.50;5075395;27;45429;-66
2022/03/20 01:21:32;;;;;;;;;2.00;2.00;;;;;11.03;31.33;101855.66;5075469;27;45692;-66
2022/03/20 01:23:58;;;;;;;;;2.00;2.00;;;;;11.04;31.20;101853.88;5075288;27;45439;-66
2022/03/20 01:26:23;;;;;;;;;5.00;2.67;;;;;11.02;31.34;101853.91;5075047;27;45444;-69
2022/03/20 01:28:48;;;;;;;;;3.33;2.33;;;;;11.01;31.02;101852.16;5075147;27;45497;-69
2022/03/20 01:31:14;;;;;;;;;3.00;3.00;;;;;10.99;30.86;101846.09;5075404;27;45619;-67
2022/03/20 01:33:41;;;;;;;;;2.33;2.00;;;;;10.98;31.34;101848.72;5075020;27;46021;-66
2022/03/20 01:36:06;;;;;;;;;4.00;3.33;;;;;10.99;30.75;101855.75;5075338;28;45438;-69
2022/03/20 01:38:32;;;;;;;;;2.00;2.00;;;;;10.94;31.50;101842.66;5075357;27;45868;-66
2022/03/20 01:41:00;;;;;;;;;3.00;3.00;;;;;10.92;31.62;101836.53;5075295;27;45513;-67
2022/03/20 01:43:25;;;;;;;;;2.00;2.00;;;;;10.94;31.58;101842.66;5090687;27;46260;-66
2022/03/20 01:45:50;;;;;;;;;3.00;3.00;;;;;10.94;31.74;101844.44;5075148;27;45462;-68
2022/03/20 01:48:16;;;;;;;;;1.33;1.33;;;;;10.95;31.45;101844.38;5074688;27;45529;-67
2022/03/20 01:50:42;;;;;;;;;3.00;3.00;;;;;10.96;31.29;101845.25;5075193;27;45614;-66
2022/03/20 01:53:08;;;;;;;;;2.00;2.00;;;;;10.97;31.53;101839.09;5075001;27;46500;-69
2022/03/20 01:55:33;;;;;;;;;2.33;2.33;;;;;10.97;31.30;101841.75;5074680;27;45606;-70
2022/03/20 01:57:59;;;;;;;;;2.00;2.00;;;;;10.92;31.90;101841.81;5074894;27;45443;-69
2022/03/20 02:00:26;;;;;;;;;2.67;2.00;;;;;10.90;31.96;101837.47;5075135;27;45637;-66
2022/03/20 02:02:53;;;;;;;;;3.67;2.00;;;;;10.88;31.99;101829.59;5074783;27;45434;-67
2022/03/20 02:05:19;;;;;;;;;2.00;2.00;;;;;10.88;32.72;101828.72;5074634;27;45414;-68
2022/03/20 02:07:47;;;;;;;;;3.00;2.00;;;;;10.90;32.56;101829.56;5074846;27;45445;-70
2022/03/20 02:10:13;;;;;;;;;2.00;2.00;;;;;10.92;32.75;101831.28;5074245;27;45637;-64
2022/03/20 02:12:40;;;;;;;;;2.67;2.67;;;;;10.93;32.50;101835.63;5074601;28;46285;-69
2022/03/20 02:15:09;;;;;;;;;3.00;2.00;;;;;10.94;32.37;101829.50;5074743;27;45364;-68
2022/03/20 02:17:36;;;;;;;;;1.00;1.00;;;;;10.94;32.40;101816.34;5074662;27;45478;-66
2022/03/20 02:20:04;;;;;;;;;1.33;1.33;;;;;10.96;32.38;101816.28;5074690;27;45549;-68
2022/03/20 02:22:32;;;;;;;;;5.00;2.00;;;;;10.96;32.45;101816.28;5074530;28;45466;-70
2022/03/20 02:24:58;;;;;;;;;2.33;2.33;;;;;10.98;32.57;101803.97;5074273;27;45505;-70
2022/03/20 02:27:25;;;;;;;;;4.00;3.67;;;;;10.97;32.60;101807.50;5066546;27;45401;-70
2022/03/20 02:29:56;;;;;;;;;3.00;3.00;;;;;10.95;32.94;101804.91;5076036;27;45565;-67
2022/03/20 02:32:27;;;;;;;;;3.33;3.33;;;;;10.95;33.24;101799.63;5077427;27;45442;-68
2022/03/20 02:34:54;;;;;;;;;4.00;4.00;;;;;10.96;32.61;101800.50;5077658;27;45390;-68
2022/03/20 02:37:23;;;;;;;;;7.33;4.00;;;;;10.96;33.24;101795.22;5074728;28;45437;-67
2022/03/20 02:39:50;;;;;;;;;3.00;3.00;;;;;10.96;33.11;101792.59;5077809;27;45517;-65
2022/03/20 02:42:16;;;;;;;;;3.00;3.00;;;;;10.94;33.61;101781.25;5077351;27;46549;-67
2022/03/20 02:44:59;;;;;;;;;3.33;3.33;;;;;10.94;33.83;101790.00;5077682;27;45513;-66
2022/03/20 02:47:27;;;;;;;;;2.00;2.00;;;;;10.88;33.50;101792.75;5077896;27;45470;-66
2022/03/20 02:50:09;;;;;;;;;3.00;3.00;;;;;10.87;33.83;101790.13;5077633;27;45633;-66
2022/03/20 02:52:55;;;;;;;;;2.00;2.00;;;;;10.86;33.30;101794.53;5078902;27;45381;-68
2022/03/20 02:55:25;;;;;;;;;5.00;3.00;;;;;10.86;33.58;101791.91;5077298;27;45356;-69
2022/03/20 02:57:52;;;;;;;;;2.00;2.00;;;;;10.86;33.42;101788.41;5077762;27;45420;-71
2022/03/20 03:00:21;;;;;;;;;3.00;2.00;;;;;10.76;33.57;101785.94;5077478;27;45542;-65
2022/03/20 03:02:47;;;;;;;;;3.33;3.00;;;;;10.75;34.18;101788.59;5077193;27;45540;-68
2022/03/20 03:05:18;;;;;;;;;5.67;5.67;;;;;10.76;34.27;101774.53;5077728;27;45483;-71
2022/03/20 03:13:16;;;;;;;;;2.00;2.00;;;;;10.73;34.08;101777.22;5064536;28;45819;-67
2022/03/20 03:15:42;;;;;;;;;3.00;3.00;;;;;10.71;34.73;101773.75;5077150;27;45504;-67
2022/03/20 03:18:08;;;;;;;;;3.00;3.00;;;;;10.69;34.58;101768.50;5077450;27;45399;-66
2022/03/20 03:20:34;;;;;;;;;4.33;4.33;;;;;10.70;34.48;101775.50;5077456;28;45453;-69
2022/03/20 03:23:00;;;;;;;;;5.00;5.00;;;;;10.70;34.93;101757.09;5076932;27;45504;-72
2022/03/20 03:25:25;;;;;;;;;3.00;3.00;;;;;10.69;34.86;101763.22;5077357;28;45468;-69
2022/03/20 03:27:51;;;;;;;;;4.67;4.00;;;;;10.66;35.01;101762.44;5075660;27;45510;-65
2022/03/20 03:30:17;;;;;;;;;4.00;4.00;;;;;10.63;35.27;101771.25;5077357;27;45448;-68
2022/03/20 03:32:43;;;;;;;;;4.33;4.33;;;;;10.60;35.11;101771.28;5076804;28;46036;-68
2022/03/20 03:37:53;;;;;;;;;7.50;7.50;;;;;10.58;35.85;101770.44;5077237;27;45334;-68
2022/03/20 03:40:19;;;;;;;;;5.50;5.00;;;;;10.58;35.55;101763.41;5076559;27;45604;-65
2022/03/20 03:42:44;;;;;;;;;6.50;6.50;;;;;10.58;36.03;101763.41;5077103;27;46045;-69
2022/03/20 03:45:10;;;;;;;;;4.33;4.00;;;;;10.57;35.23;101766.94;5077172;27;45437;-68
2022/03/20 03:47:36;;;;;;;;;7.33;7.33;;;;;10.54;35.32;101766.13;5076779;27;45456;-67
2022/03/20 03:50:01;;;;;;;;;7.67;7.67;;;;;10.50;35.79;101764.44;5076624;27;45489;-67
2022/03/20 03:52:27;;;;;;;;;5.67;5.67;;;;;10.46;36.03;101762.78;5076824;27;46099;-68
2022/03/20 03:54:52;;;;;;;;;9.00;8.25;;;;;10.42;36.18;101764.56;5076800;27;45515;-68
2022/03/20 03:57:19;;;;;;;;;5.00;5.00;;;;;10.38;36.61;101755.88;5076920;27;45416;-71
2022/03/20 03:59:44;;;;;;;;;7.50;7.50;;;;;10.36;36.58;101756.78;5077014;27;45614;-70
2022/03/20 04:02:09;;;;;;;;;7.00;7.00;;;;;10.34;37.01;101764.72;5077558;27;45413;-69
2022/03/20 04:04:35;;;;;;;;;9.00;7.75;;;;;10.33;36.46;101762.09;5077040;27;45444;-67
2022/03/20 04:07:00;;;;;;;;;4.50;4.00;;;;;10.33;36.80;101762.09;5077265;27;45425;-69
2022/03/20 04:09:26;;;;;;;;;6.50;6.50;;;;;10.34;36.50;101769.97;5076529;27;46906;-68
2022/03/20 04:11:52;;;;;;;;;7.00;7.00;;;;;10.30;36.58;101760.38;5076451;27;45428;-69
2022/03/20 04:14:17;;;;;;;;;7.25;5.50;;;;;10.32;36.60;101766.47;5076659;27;45501;-71
2022/03/20 04:16:42;;;;;;;;;4.50;4.50;;;;;10.32;36.57;101755.09;5076712;27;45380;-67
2022/03/20 04:19:09;;;;;;;;;8.75;8.75;;;;;10.31;36.88;101764.72;5076291;27;45361;-67
2022/03/20 04:21:35;;;;;;;;;6.33;6.33;;;;;10.28;37.02;101764.78;5076953;27;45509;-67
2022/03/20 04:24:00;;;;;;;;;5.25;5.25;;;;;10.27;37.20;101767.41;5076702;27;45493;-67
2022/03/20 04:26:26;;;;;;;;;8.00;5.25;;;;;10.27;37.51;101756.91;5076759;27;45453;-70
2022/03/20 04:28:53;;;;;;;;;9.25;8.00;;;;;10.28;37.24;101756.03;5076621;27;45425;-68
2022/03/20 04:31:20;;;;;;;;;10.25;9.25;;;;;10.27;37.27;101757.78;5075990;27;45492;-68
2022/03/20 04:33:56;;;;;;;;;9.75;9.00;;;;;10.25;37.46;101751.66;5076061;27;45530;-71
2022/03/20 04:36:25;;;;;;;;;9.00;8.00;;;;;10.24;37.36;101746.44;5092338;27;45447;-69
2022/03/20 04:38:52;;;;;;;;;5.25;5.25;;;;;10.24;37.89;101747.28;5076143;28;45545;-69
2022/03/20 04:41:18;;;;;;;;;10.50;9.25;;;;;10.23;37.58;101756.06;5075865;27;45580;-71
2022/03/20 04:43:47;;;;;;;;;7.50;7.50;;;;;10.23;37.58;101744.69;5075972;27;45467;-66
2022/03/20 04:46:13;;;;;;;;;9.00;9.00;;;;;10.21;38.07;101738.56;5076154;27;45366;-71
2022/03/20 04:59:36;;;;;;;;;12.50;12.50;;;;;10.18;38.48;101734.22;5075849;28;45446;-70
2022/03/20 05:02:01;;;;;;;;;8.25;8.00;;;;;10.19;38.48;101741.25;5075876;27;45548;-67
2022/03/20 05:04:27;;;;;;;;;14.25;13.25;;;;;10.18;38.33;101744.75;5075662;27;45417;-71
2022/03/20 05:06:52;;;;;;;;;13.00;10.25;;;;;10.18;38.40;101743.00;5075946;27;45399;-69
2022/03/20 05:14:45;;;;;;;;;10.25;10.00;;;;;10.12;38.84;101726.44;5075667;28;45473;-68
2022/03/20 05:17:10;;;;;;;;;10.25;10.25;;;;;10.13;38.91;101736.94;5075548;27;45368;-67
2022/03/20 05:19:38;;;;;;;;;8.75;8.75;;;;;10.12;38.94;101734.31;5075494;27;50889;-72
2022/03/20 05:22:04;;;;;;;;;8.50;8.50;;;;;10.10;38.97;101738.72;5075582;27;45506;-70
2022/03/20 05:24:31;;;;;;;;;14.25;11.00;;;;;10.09;38.84;101737.88;5075605;28;45374;-66
2022/03/20 05:26:56;;;;;;;;;9.50;9.50;;;;;10.06;39.08;101734.44;5075639;27;45457;-68
2022/03/20 05:29:22;;;;;;;;;13.25;10.75;;;;;10.03;39.19;101737.09;5075219;27;45579;-66
2022/03/20 05:31:49;;;;;;;;;9.00;8.75;;;;;10.01;39.29;101739.75;5075161;27;45484;-68
2022/03/20 05:34:16;;;;;;;;;9.50;9.00;;;;;9.99;38.95;101736.25;5075551;27;45456;-68
2022/03/20 05:36:42;;;;;;;;;8.25;7.75;;;;;9.96;39.34;101745.06;5075387;28;45599;-69
2022/03/20 05:39:07;;;;;;;;;8.75;8.00;;;;;9.94;39.19;101738.97;5075418;27;45413;-70
2022/03/20 05:41:48;;;;;;;;;7.75;7.75;;;;;9.95;39.47;101740.72;5075166;27;46192;-68
2022/03/20 05:44:33;;;;;;;;;8.75;8.75;;;;;9.93;39.49;101739.84;5075317;27;45489;-66
2022/03/20 05:47:00;;;;;;;;;10.00;10.00;;;;;9.92;38.85;101740.75;5074848;27;45440;-69
2022/03/20 05:49:25;;;;;;;;;10.00;9.50;;;;;9.90;39.14;101734.66;5074967;28;45469;-66
2022/03/20 05:51:52;;;;;;;;;8.50;8.50;;;;;9.93;39.57;101741.63;5074687;27;45416;-69
2022/03/20 05:54:17;;;;;;;;;9.25;8.75;;;;;9.94;39.47;101725.84;5075033;27;45458;-69
2022/03/20 05:59:28;;;;;;;;;7.00;7.00;;;;;9.94;39.98;101724.97;5075135;27;45530;-68
2022/03/20 06:01:54;;;;;;;;;8.00;8.00;;;;;9.90;39.75;101726.75;5074274;27;46094;-65
2022/03/20 06:04:21;;;;;;;;;7.75;7.75;;;;;9.92;39.59;101724.13;5075685;27;45482;-69
2022/03/20 06:06:48;;;;;;;;;8.75;8.25;;;;;9.89;39.71;101729.44;5078884;27;45457;-69
2022/03/20 06:09:14;;;;;;;;;10.75;9.00;;;;;9.86;39.86;101730.34;5078445;27;45468;-70
2022/03/20 06:11:39;;;;;;;;;7.00;7.00;;;;;9.84;39.76;101726.00;5078277;27;46739;-69
2022/03/20 06:14:04;;;;;;;;;9.50;8.00;;;;;9.82;39.82;101735.66;5078379;27;45342;-66
2022/03/20 06:16:30;;;;;;;;;10.25;9.75;;;;;9.78;40.22;101740.09;5078152;27;45428;-72
2022/03/20 06:18:57;;;;;;;;;8.75;7.75;;;;;9.77;40.30;101743.59;5078463;27;45659;-68
2022/03/20 06:21:23;;;;;;;;;8.00;8.00;;;;;9.74;40.34;101733.13;5078278;27;46198;-70
2022/03/20 06:23:49;;;;;;;;;9.50;9.25;;;;;9.75;40.34;101747.97;5078342;27;45470;-69
2022/03/20 06:26:16;;;;;;;;;10.25;8.00;;;;;9.77;40.35;101747.97;5078265;27;45437;-68
2022/03/20 06:28:42;;;;;;;;;8.75;7.75;;;;;9.77;40.53;101753.22;5078049;27;45573;-72
2022/03/20 06:31:12;;;;;;;;;10.25;10.00;;;;;9.80;40.18;101748.78;5077546;27;45519;-69
2022/03/20 06:33:41;;;;;;;;;8.25;8.25;;;;;9.79;40.73;101747.06;5078279;27;45465;-74
2022/03/20 06:36:07;;;;;;;;;11.75;10.00;;;;;9.82;40.32;101751.41;5078130;27;45424;-69
2022/03/20 06:38:34;;;;;;;;;13.00;10.00;;;;;9.81;40.30;101753.19;5078049;27;45425;-69
2022/03/20 06:41:00;;;;;;;;;11.50;11.50;;;;;9.80;40.74;101750.56;5076744;27;46378;-69
2022/03/20 06:43:25;;;;;;;;;12.50;10.75;;;;;9.79;40.48;101752.31;5077887;27;47177;-71
2022/03/20 06:45:52;;;;;;;;;13.75;13.00;;;;;9.79;40.65;101757.56;5078026;27;45749;-67
2022/03/20 06:48:18;;;;;;;;;11.50;9.75;;;;;9.81;40.75;101762.81;5078007;27;45366;-69
2022/03/20 06:50:43;;;;;;;;;9.00;9.00;;;;;9.79;40.59;101764.59;5077672;27;46235;-70
2022/03/20 06:53:10;;;;;;;;;8.00;8.00;;;;;9.81;40.99;101768.94;5077941;27;45390;-69
2022/03/20 06:55:35;;;;;;;;;15.50;12.50;;;;;9.80;40.92;101761.94;5078113;27;45400;-68
2022/03/20 06:58:00;;;;;;;;;9.50;9.50;;;;;9.79;40.80;101762.84;5077561;28;45444;-66
2022/03/20 07:00:28;;;;;;;;;13.00;13.00;;;;;9.84;40.90;101768.91;5077319;27;45462;-70
2022/03/20 07:02:54;;;;;;;;;12.75;12.75;;;;;9.86;40.92;101768.84;5077711;27;45470;-71
2022/03/20 07:05:20;;;;;;;;;12.75;12.75;;;;;9.84;40.86;101768.03;5077630;27;45454;-68
2022/03/20 07:07:45;;;;;;;;;16.25;16.00;;;;;9.83;40.87;101775.06;5077695;27;45616;-71
2022/03/20 07:10:13;;;;;;;;;15.00;15.00;;;;;9.84;40.89;101775.91;5077720;27;45456;-67
2022/03/20 07:12:39;;;;;;;;;15.25;12.75;;;;;9.84;40.85;101779.41;5077545;27;45389;-67
2022/03/20 07:15:05;;;;;;;;;13.75;13.75;;;;;9.85;41.51;101781.13;5076422;28;45466;-70
2022/03/20 07:17:30;;;;;;;;;15.25;15.25;;;;;9.83;41.08;101788.19;5077563;27;45584;-67
2022/03/20 07:19:58;;;;;;;;;14.75;13.50;;;;;9.82;41.11;101783.81;5075688;28;48309;-70
2022/03/20 07:22:23;;;;;;;;;15.50;14.50;;;;;9.82;40.80;101778.56;5077302;27;45508;-67
2022/03/20 07:24:49;;;;;;;;;14.75;14.75;;;;;9.83;40.83;101785.56;5077299;27;45391;-66
2022/03/20 07:29:58;;;;;;;;;15.25;15.25;;;;;9.81;40.63;101773.34;5076626;28;45682;-69
2022/03/20 07:32:24;;;;;;;;;19.50;15.50;;;;;9.81;41.16;101776.81;5076953;27;45409;-73
2022/03/20 07:34:50;;;;;;;;;16.00;15.00;;;;;9.83;41.30;101775.06;5077238;27;45609;-72
2022/03/20 07:37:18;;;;;;;;;19.50;19.50;;;;;9.84;41.12;101778.53;5077191;27;45516;-67
2022/03/20 07:39:45;;;;;;;;;16.50;16.50;;;;;9.82;41.43;101780.31;5075233;28;47756;-69
2022/03/20 07:42:11;;;;;;;;;21.00;19.00;;;;;9.82;41.36;101786.44;5076878;27;45518;-68
2022/03/20 07:44:37;;;;;;;;;18.75;15.00;;;;;9.84;41.35;101789.06;5076925;27;45460;-68
2022/03/20 07:47:07;;;;;;;;;20.00;18.25;;;;;9.87;41.63;101783.75;5075817;28;45494;-71
2022/03/20 07:49:33;;;;;;;;;21.25;18.50;;;;;9.90;41.48;101784.56;5076299;27;45432;-69
2022/03/20 07:51:59;;;;;;;;;19.75;18.50;;;;;9.93;41.21;101784.53;5075419;27;45630;-67
2022/03/20 07:54:25;;;;;;;;;18.75;18.00;;;;;9.98;41.54;101791.50;5076441;27;45395;-67
2022/03/20 07:56:51;;;;;;;;;17.50;17.50;;;;;10.00;41.10;101790.59;5076814;27;45524;-71
2022/03/20 07:59:16;;;;;;;;;22.75;20.00;;;;;10.02;41.30;101798.44;5074993;27;45452;-68
2022/03/20 08:01:43;;;;;;;;;19.00;19.00;;;;;10.00;41.23;101795.84;5076637;27;45427;-64
2022/03/20 08:04:08;;;;;;;;;28.00;22.00;;;;;10.00;41.29;101789.72;5076704;27;45425;-68
2022/03/20 08:06:33;;;;;;;;;19.50;19.25;;;;;10.00;41.19;101789.72;5076244;27;45386;-72
2022/03/20 08:08:59;;;;;;;;;21.50;20.00;;;;;10.02;40.92;101787.91;5074900;28;47433;-69
2022/03/20 08:11:31;;;;;;;;;21.00;20.25;;;;;10.00;41.34;101784.47;5076299;27;45430;-68
2022/03/20 08:13:57;;;;;;;;;23.50;22.00;;;;;10.00;41.57;101782.69;5076664;27;45746;-66
2022/03/20 08:16:26;;;;;;;;;29.50;26.00;;;;;10.00;41.63;101785.31;5076200;27;45524;-70
2022/03/20 08:18:56;;;;;;;;;21.50;21.50;;;;;10.04;41.65;101779.13;5075980;27;45451;-66
2022/03/20 08:21:22;;;;;;;;;21.25;20.00;;;;;10.10;41.39;101788.69;5076116;27;45463;-72
2022/03/20 08:23:47;;;;;;;;;22.50;21.50;;;;;10.11;41.20;101787.81;5074479;28;45504;-70
2022/03/20 08:26:14;;;;;;;;;27.25;25.00;;;;;10.10;41.28;101788.69;5074657;28;45446;-66
2022/03/20 08:28:41;;;;;;;;;29.25;26.50;;;;;10.08;40.98;101790.47;5075076;27;45641;-70
2022/03/20 08:31:07;;;;;;;;;30.00;25.25;;;;;10.04;41.22;101787.00;5075975;28;45433;-72
2022/03/20 08:33:33;;;;;;;;;27.50;25.50;;;;;10.01;41.78;101787.06;5076050;28;45453;-70
2022/03/20 08:35:59;;;;;;;;;30.50;26.00;;;;;10.01;41.17;101780.94;5074799;28;45538;-66
2022/03/20 08:38:25;;;;;;;;;30.25;25.75;;;;;10.00;40.58;101782.69;5075596;28;45458;-69
2022/03/20 08:40:50;;;;;;;;;29.50;27.50;;;;;9.98;41.54;101781.84;5075912;27;45410;-66
2022/03/20 08:43:16;;;;;;;;;24.00;23.75;;;;;9.98;41.49;101783.59;5076118;27;45903;-70
2022/03/20 08:45:42;;;;;;;;;36.00;29.25;;;;;10.00;41.41;101787.09;5075958;27;45523;-64
2022/03/20 08:48:11;;;;;;;;;28.25;26.25;;;;;10.04;41.68;101791.41;5075883;27;46171;-72
2022/03/20 08:50:37;;;;;;;;;33.50;28.00;;;;;10.08;41.44;101795.75;5075634;27;45560;-69
2022/03/20 08:53:03;;;;;;;;;33.75;32.00;;;;;10.11;41.48;101795.69;5075425;27;45585;-69
2022/03/20 08:55:33;;;;;;;;;33.25;32.00;;;;;10.16;41.44;101800.00;5091337;27;45374;-69
2022/03/20 08:57:58;;;;;;;;;25.75;25.25;;;;;10.21;41.47;101804.28;5075487;27;45482;-68
2022/03/20 09:00:25;;;;;;;;;35.25;28.50;;;;;10.22;41.28;101801.66;5075499;27;45433;-66
2022/03/20 09:02:51;;;;;;;;;28.00;26.50;;;;;10.28;40.79;101806.84;5075886;27;45521;-70
2022/03/20 09:05:18;;;;;;;;;29.75;29.75;;;;;10.31;41.14;101814.69;5075201;27;45563;-68
2022/03/20 09:07:45;;;;;;;;;30.50;29.25;;;;;10.33;41.11;101818.16;5075351;27;46004;-70
2022/03/20 09:10:12;;;;;;;;;27.75;27.50;;;;;10.36;41.05;101814.63;5075290;27;45355;-70
2022/03/20 09:12:39;;;;;;;;;32.00;29.50;;;;;10.37;41.03;101817.25;5075625;27;45519;-68
2022/03/20 09:15:12;;;;;;;;;32.00;29.25;;;;;10.42;41.45;101808.41;5075331;27;45406;-67
2022/03/20 09:20:21;;;;;;;;;35.25;30.00;;;;;10.43;40.88;101821.53;5075362;28;45655;-71
2022/03/20 09:22:47;;;;;;;;;34.50;32.25;;;;;10.43;40.92;101821.53;5075389;27;45406;-70
2022/03/20 09:25:13;;;;;;;;;32.00;27.50;;;;;10.44;41.57;101814.53;5075492;27;45442;-70
2022/03/20 09:27:38;;;;;;;;;32.00;29.50;;;;;10.46;40.82;101825.91;5075622;27;45596;-73
2022/03/20 09:30:05;;;;;;;;;36.25;33.00;;;;;10.48;40.56;101821.50;5075348;27;45449;-69
2022/03/20 09:32:30;;;;;;;;;31.50;27.75;;;;;10.47;41.10;101817.97;5075626;27;45385;-68
2022/03/20 09:34:56;;;;;;;;;25.50;24.75;;;;;10.52;41.23;101816.13;5075343;27;45484;-71
2022/03/20 09:37:21;;;;;;;;;27.75;25.25;;;;;10.54;40.91;101811.72;5075178;27;45506;-69
2022/03/20 09:39:46;;;;;;;;;29.25;28.50;;;;;10.60;41.05;101810.75;5076389;27;45467;-71
2022/03/20 09:42:13;;;;;;;;;28.75;27.25;;;;;10.65;40.51;101806.28;5078997;27;45474;-70
2022/03/20 09:44:39;;;;;;;;;29.50;29.50;;;;;10.70;41.04;101807.09;5078963;27;45450;-72
2022/03/20 09:47:10;;;;;;;;;32.75;27.75;;;;;10.74;40.65;101803.50;5078214;27;45982;-71
2022/03/20 09:49:36;;;;;;;;;30.25;30.25;;;;;10.76;41.10;101803.47;5078525;27;45552;-68
2022/03/20 09:52:03;;;;;;;;;31.75;31.25;;;;;10.75;41.11;101797.34;5077233;28;45391;-69
2022/03/20 09:54:28;;;;;;;;;33.25;27.25;;;;;10.76;40.74;101788.56;5078293;27;45374;-69
2022/03/20 09:56:54;;;;;;;;;35.00;33.50;;;;;10.85;41.08;101800.69;5078430;27;45379;-70
2022/03/20 09:59:19;;;;;;;;;29.75;26.25;;;;;10.91;40.02;101799.69;5078453;27;45407;-71
2022/03/20 10:01:45;;;;;;;;;37.75;31.50;;;;;10.96;40.22;101808.38;5077397;27;45533;-67
2022/03/20 10:04:12;;;;;;;;;25.75;25.50;;;;;10.99;39.66;101811.84;5078684;27;45398;-70
2022/03/20 10:06:39;;;;;;;;;32.25;31.25;;;;;11.00;39.36;101802.19;5078375;27;47138;-68
2022/03/20 10:09:08;;;;;;;;;32.50;32.50;;;;;11.04;39.50;101817.03;5078125;27;45509;-67
2022/03/20 10:11:35;;;;;;;;;30.75;28.75;;;;;11.20;39.64;101815.88;5078767;27;45359;-68
2022/03/20 10:14:09;;;;;;;;;41.50;34.00;;;;;11.50;39.40;101814.41;5078031;28;45600;-68
2022/03/20 10:16:37;;;;;;;;;28.50;28.50;;;;;11.82;38.66;101814.63;5078046;27;45455;-70
2022/03/20 10:19:23;;;;;;;;;31.75;29.00;;;;;12.06;37.74;101811.53;5078267;27;45500;-71
2022/03/20 10:21:53;;;;;;;;;31.25;27.50;;;;;12.22;37.12;101814.66;5078291;27;45476;-65
2022/03/20 10:24:21;;;;;;;;;28.50;25.25;;;;;12.40;36.63;101807.25;5078102;27;45534;-68
2022/03/20 10:27:09;;;;;;;;;31.50;29.25;;;;;12.56;35.74;101813.91;5078142;27;46173;-72
2022/03/20 10:29:45;;;;;;;;;25.50;24.00;;;;;12.59;35.96;101809.41;5077630;28;45460;-71
2022/03/20 10:32:10;;;;;;;;;23.00;23.00;;;;;12.68;36.33;101810.09;5078205;28;45516;-70
2022/03/20 10:34:59;;;;;;;;;31.00;26.50;;;;;12.77;35.79;101812.50;5078221;27;45575;-68
2022/03/20 10:37:43;;;;;;;;;28.00;27.50;;;;;12.67;35.31;101803.06;5077972;28;46655;-70
2022/03/20 10:40:10;;;;;;;;;26.25;23.25;;;;;12.56;35.57;101811.25;5077679;27;45398;-65
2022/03/20 10:42:36;;;;;;;;;19.75;15.00;;;;;12.44;35.16;101804.53;5077837;27;45430;-70
2022/03/20 10:45:06;;;;;;;;;23.75;21.75;;;;;12.33;34.26;101806.50;5077379;27;45373;-69
2022/03/20 10:47:32;;;;;;;;;22.50;22.00;;;;;12.25;34.54;101813.75;5077606;27;46061;-66
2022/03/20 10:50:15;;;;;;;;;24.50;23.75;;;;;12.19;34.90;101808.59;5076550;27;45644;-73
2022/03/20 10:52:40;;;;;;;;;27.50;24.75;;;;;12.12;34.87;101803.47;5078031;27;45453;-70
2022/03/20 10:55:12;;;;;;;;;25.25;22.75;;;;;12.05;34.40;101808.94;5077896;27;45642;-68
2022/03/20 10:57:39;;;;;;;;;21.25;20.00;;;;;11.97;34.95;101806.44;5077564;27;46195;-69
2022/03/20 11:00:06;;;;;;;;;23.75;19.25;;;;;11.93;34.39;101804.78;5077560;27;45539;-74
2022/03/20 11:02:36;;;;;;;;;14.75;13.50;;;;;11.92;33.61;101797.78;5077659;27;45458;-73
2022/03/20 11:05:01;;;;;;;;;18.50;18.00;;;;;11.88;34.49;101802.25;5077644;27;45320;-66
2022/03/20 11:07:27;;;;;;;;;22.00;21.50;;;;;11.87;34.70;101797.84;5077098;27;45714;-70
2022/03/20 11:09:54;;;;;;;;;19.00;19.00;;;;;11.88;33.69;101798.75;5077601;27;45553;-69
2022/03/20 11:12:26;;;;;;;;;24.25;20.25;;;;;11.88;34.74;101790.84;5077497;27;45456;-69
2022/03/20 11:14:54;;;;;;;;;24.00;21.50;;;;;11.88;34.74;101788.22;5077367;27;45620;-71
2022/03/20 11:17:26;;;;;;;;;21.50;17.25;;;;;11.89;34.07;101790.78;5077214;28;45507;-70
2022/03/20 11:19:57;;;;;;;;;15.25;12.75;;;;;11.90;33.74;101789.91;5077218;27;45382;-71
2022/03/20 11:22:24;;;;;;;;;13.50;13.50;;;;;11.92;33.27;101790.72;5077233;28;45445;-67
2022/03/20 11:24:52;;;;;;;;;16.25;12.75;;;;;11.91;32.84;101794.28;5077549;28;45423;-70
2022/03/20 11:27:28;;;;;;;;;19.50;17.75;;;;;11.94;33.26;101794.19;5077016;27;46265;-70
2022/03/20 11:30:09;;;;;;;;;17.00;17.00;;;;;11.93;32.73;101791.63;5077067;27;45475;-68
2022/03/20 11:32:35;;;;;;;;;12.50;9.75;;;;;11.97;33.67;101790.63;5077247;27;45366;-73
2022/03/20 11:35:03;;;;;;;;;19.75;19.00;;;;;11.97;33.81;101790.63;5075779;28;45376;-70
2022/03/20 11:37:48;;;;;;;;;16.25;16.25;;;;;12.01;33.52;101794.06;5076902;27;45450;-71
2022/03/20 11:40:20;;;;;;;;;20.00;18.25;;;;;12.02;33.31;101787.91;5076627;27;45445;-70
2022/03/20 11:42:47;;;;;;;;;19.50;17.00;;;;;12.01;33.44;101784.41;5077175;27;45427;-68
2022/03/20 11:45:19;;;;;;;;;13.75;13.75;;;;;12.03;33.30;101792.25;5075619;28;45585;-69
2022/03/20 11:47:49;;;;;;;;;18.00;17.75;;;;;12.07;33.51;101796.56;5092669;27;45466;-71
2022/03/20 11:50:17;;;;;;;;;18.00;17.75;;;;;12.10;33.41;101791.22;5076725;28;45540;-70
2022/03/20 11:52:58;;;;;;;;;17.00;15.75;;;;;12.12;32.70;101792.94;5076662;27;45521;-69